sensor_id;sensor_type;location;lat;lon;timestamp;pressure;altitude;pressure_sealevel;temperature;humidity
35848;BME280;22332;51.954;20.118;2023-03-13T00:02:03;99580.39;;;2.77;65.97
35848;BME280;22332;51.954;20.118;2023-03-13T00:05:09;99575.34;;;2.77;65.80
35848;BME280;22332;51.954;20.118;2023-03-13T00:08:15;99572.46;;;2.77;65.93
35848;BME280;22332;51.954;20.118;2023-03-13T00:11:20;99572.05;;;2.78;65.81
35848;BME280;22332;51.954;20.118;2023-03-13T00:14:26;99568.42;;;2.80;65.87
35848;BME280;22332;51.954;20.118;2023-03-13T00:17:32;99563.39;;;2.79;65.79
35848;BME280;22332;51.954;20.118;2023-03-13T00:20:37;99560.34;;;2.80;65.86
35848;BME280;22332;51.954;20.118;2023-03-13T00:23:43;99557.23;;;2.81;65.83
35848;BME280;22332;51.954;20.118;2023-03-13T00:26:49;99558.95;;;2.82;65.72
35848;BME280;22332;51.954;20.118;2023-03-13T00:29:54;99565.45;;;2.82;65.77
35848;BME280;22332;51.954;20.118;2023-03-13T00:33:00;99570.00;;;2.82;65.79
35848;BME280;22332;51.954;20.118;2023-03-13T00:36:07;99575.96;;;2.80;65.87
35848;BME280;22332;51.954;20.118;2023-03-13T00:39:13;99581.64;;;2.74;66.00
35848;BME280;22332;51.954;20.118;2023-03-13T00:42:19;99576.05;;;2.69;66.09
35848;BME280;22332;51.954;20.118;2023-03-13T00:45:26;99562.38;;;2.69;66.37
35848;BME280;22332;51.954;20.118;2023-03-13T00:48:32;99555.70;;;2.69;66.47
35848;BME280;22332;51.954;20.118;2023-03-13T00:51:38;99548.25;;;2.68;66.68
35848;BME280;22332;51.954;20.118;2023-03-13T00:54:44;99542.48;;;2.68;66.80
35848;BME280;22332;51.954;20.118;2023-03-13T00:57:49;99530.11;;;2.66;66.91
35848;BME280;22332;51.954;20.118;2023-03-13T01:00:55;99540.00;;;2.68;67.06
35848;BME280;22332;51.954;20.118;2023-03-13T01:04:03;99539.91;;;2.71;66.95
35848;BME280;22332;51.954;20.118;2023-03-13T01:07:09;99542.32;;;2.79;66.96
35848;BME280;22332;51.954;20.118;2023-03-13T01:10:15;99537.88;;;2.86;67.11
35848;BME280;22332;51.954;20.118;2023-03-13T01:13:21;99528.86;;;2.93;67.10
35848;BME280;22332;51.954;20.118;2023-03-13T01:16:31;99520.87;;;2.99;67.15
35848;BME280;22332;51.954;20.118;2023-03-13T01:19:37;99520.03;;;3.03;67.19
35848;BME280;22332;51.954;20.118;2023-03-13T01:22:43;99507.53;;;3.05;67.46
35848;BME280;22332;51.954;20.118;2023-03-13T01:25:48;99495.29;;;3.07;67.49
35848;BME280;22332;51.954;20.118;2023-03-13T01:28:54;99498.33;;;3.06;67.75
35848;BME280;22332;51.954;20.118;2023-03-13T01:32:00;99501.77;;;3.03;67.86
35848;BME280;22332;51.954;20.118;2023-03-13T01:35:07;99507.67;;;3.02;67.88
35848;BME280;22332;51.954;20.118;2023-03-13T01:38:14;99511.19;;;3.02;68.09
35848;BME280;22332;51.954;20.118;2023-03-13T01:41:20;99508.61;;;2.99;68.13
35848;BME280;22332;51.954;20.118;2023-03-13T01:44:27;99507.19;;;2.99;68.23
35848;BME280;22332;51.954;20.118;2023-03-13T01:47:33;99502.91;;;2.97;68.21
35848;BME280;22332;51.954;20.118;2023-03-13T01:50:47;99501.63;;;2.96;68.44
35848;BME280;22332;51.954;20.118;2023-03-13T01:54:05;99493.81;;;2.92;68.42
35848;BME280;22332;51.954;20.118;2023-03-13T01:57:17;99487.95;;;2.89;68.55
35848;BME280;22332;51.954;20.118;2023-03-13T02:00:28;99483.20;;;2.87;68.78
35848;BME280;22332;51.954;20.118;2023-03-13T02:03:37;99484.88;;;2.86;68.82
35848;BME280;22332;51.954;20.118;2023-03-13T02:06:45;99483.81;;;2.86;69.32
35848;BME280;22332;51.954;20.118;2023-03-13T02:09:53;99478.42;;;2.85;69.18
35848;BME280;22332;51.954;20.118;2023-03-13T02:13:02;99481.30;;;2.89;69.19
35848;BME280;22332;51.954;20.118;2023-03-13T02:16:08;99483.13;;;2.94;69.05
35848;BME280;22332;51.954;20.118;2023-03-13T02:19:18;99486.46;;;3.01;69.28
35848;BME280;22332;51.954;20.118;2023-03-13T02:22:28;99482.17;;;3.04;69.23
35848;BME280;22332;51.954;20.118;2023-03-13T02:25:41;99482.94;;;3.03;69.38
35848;BME280;22332;51.954;20.118;2023-03-13T02:28:48;99481.51;;;3.04;69.43
35848;BME280;22332;51.954;20.118;2023-03-13T02:31:55;99481.27;;;3.04;69.51
35848;BME280;22332;51.954;20.118;2023-03-13T02:35:05;99482.70;;;3.04;69.48
35848;BME280;22332;51.954;20.118;2023-03-13T02:38:15;99482.85;;;3.04;69.73
35848;BME280;22332;51.954;20.118;2023-03-13T02:41:23;99484.22;;;3.01;70.26
35848;BME280;22332;51.954;20.118;2023-03-13T02:44:30;99484.87;;;2.97;70.27
35848;BME280;22332;51.954;20.118;2023-03-13T02:47:36;99488.93;;;2.94;70.59
35848;BME280;22332;51.954;20.118;2023-03-13T02:50:42;99488.19;;;2.97;70.67
35848;BME280;22332;51.954;20.118;2023-03-13T02:53:49;99483.58;;;3.02;70.85
35848;BME280;22332;51.954;20.118;2023-03-13T02:56:59;99487.81;;;3.08;71.21
35848;BME280;22332;51.954;20.118;2023-03-13T03:00:08;99490.81;;;3.14;71.61
35848;BME280;22332;51.954;20.118;2023-03-13T03:03:17;99489.26;;;3.17;71.72
35848;BME280;22332;51.954;20.118;2023-03-13T03:06:23;99489.02;;;3.18;71.74
35848;BME280;22332;51.954;20.118;2023-03-13T03:09:29;99496.00;;;3.15;72.02
35848;BME280;22332;51.954;20.118;2023-03-13T03:12:38;99496.45;;;3.14;72.28
35848;BME280;22332;51.954;20.118;2023-03-13T03:15:44;99495.89;;;3.10;72.28
35848;BME280;22332;51.954;20.118;2023-03-13T03:18:50;99491.05;;;3.07;72.55
35848;BME280;22332;51.954;20.118;2023-03-13T03:21:55;99483.15;;;3.03;72.72
35848;BME280;22332;51.954;20.118;2023-03-13T03:25:01;99490.06;;;3.00;72.65
35848;BME280;22332;51.954;20.118;2023-03-13T03:28:08;99487.64;;;3.01;72.86
35848;BME280;22332;51.954;20.118;2023-03-13T03:31:15;99490.10;;;3.06;73.13
35848;BME280;22332;51.954;20.118;2023-03-13T03:34:22;99485.55;;;3.10;73.14
35848;BME280;22332;51.954;20.118;2023-03-13T03:37:28;99487.47;;;3.12;73.33
35848;BME280;22332;51.954;20.118;2023-03-13T03:40:35;99482.33;;;3.13;73.35
35848;BME280;22332;51.954;20.118;2023-03-13T03:43:41;99480.02;;;3.11;73.66
35848;BME280;22332;51.954;20.118;2023-03-13T03:46:47;99473.52;;;3.09;73.61
35848;BME280;22332;51.954;20.118;2023-03-13T03:49:53;99473.27;;;3.05;73.75
35848;BME280;22332;51.954;20.118;2023-03-13T03:52:58;99472.36;;;3.06;73.91
35848;BME280;22332;51.954;20.118;2023-03-13T03:56:05;99470.35;;;3.07;74.15
35848;BME280;22332;51.954;20.118;2023-03-13T03:59:13;99459.34;;;3.10;74.33
35848;BME280;22332;51.954;20.118;2023-03-13T04:02:22;99458.70;;;3.14;74.33
35848;BME280;22332;51.954;20.118;2023-03-13T04:05:28;99454.27;;;3.17;74.61
35848;BME280;22332;51.954;20.118;2023-03-13T04:08:34;99457.64;;;3.16;74.66
35848;BME280;22332;51.954;20.118;2023-03-13T04:11:40;99449.01;;;3.14;74.76
35848;BME280;22332;51.954;20.118;2023-03-13T04:14:47;99447.06;;;3.12;74.95
35848;BME280;22332;51.954;20.118;2023-03-13T04:17:54;99445.23;;;3.09;74.71
35848;BME280;22332;51.954;20.118;2023-03-13T04:21:04;99438.50;;;3.07;75.19
35848;BME280;22332;51.954;20.118;2023-03-13T04:24:19;99440.01;;;3.08;75.32
35848;BME280;22332;51.954;20.118;2023-03-13T04:27:27;99436.83;;;3.12;75.07
35848;BME280;22332;51.954;20.118;2023-03-13T04:30:34;99432.42;;;3.20;74.99
35848;BME280;22332;51.954;20.118;2023-03-13T04:34:00;99421.38;;;3.24;75.67
35848;BME280;22332;51.954;20.118;2023-03-13T04:37:24;99412.36;;;3.22;75.89
35848;BME280;22332;51.954;20.118;2023-03-13T04:40:30;99414.13;;;3.20;75.94
35848;BME280;22332;51.954;20.118;2023-03-13T04:43:47;99411.33;;;3.20;75.77
35848;BME280;22332;51.954;20.118;2023-03-13T04:47:09;99412.34;;;3.20;75.82
35848;BME280;22332;51.954;20.118;2023-03-13T04:50:24;99413.50;;;3.23;75.94
35848;BME280;22332;51.954;20.118;2023-03-13T04:53:59;99419.09;;;3.30;76.21
35848;BME280;22332;51.954;20.118;2023-03-13T04:57:18;99420.39;;;3.35;76.03
35848;BME280;22332;51.954;20.118;2023-03-13T05:00:36;99420.80;;;3.39;75.95
35848;BME280;22332;51.954;20.118;2023-03-13T05:03:50;99419.95;;;3.41;76.23
35848;BME280;22332;51.954;20.118;2023-03-13T05:07:31;99421.95;;;3.40;76.53
35848;BME280;22332;51.954;20.118;2023-03-13T05:10:47;99421.66;;;3.39;76.41
35848;BME280;22332;51.954;20.118;2023-03-13T05:14:13;99418.85;;;3.39;76.34
35848;BME280;22332;51.954;20.118;2023-03-13T05:17:47;99415.14;;;3.43;76.57
35848;BME280;22332;51.954;20.118;2023-03-13T05:21:04;99410.35;;;3.50;76.63
35848;BME280;22332;51.954;20.118;2023-03-13T05:24:20;99405.38;;;3.57;76.71
35848;BME280;22332;51.954;20.118;2023-03-13T05:27:46;99403.27;;;3.63;76.45
35848;BME280;22332;51.954;20.118;2023-03-13T05:31:06;99400.42;;;3.68;76.70
35848;BME280;22332;51.954;20.118;2023-03-13T05:34:41;99394.85;;;3.69;76.82
35848;BME280;22332;51.954;20.118;2023-03-13T05:38:06;99395.46;;;3.72;76.87
35848;BME280;22332;51.954;20.118;2023-03-13T05:41:25;99388.53;;;3.78;76.92
35848;BME280;22332;51.954;20.118;2023-03-13T05:44:32;99382.59;;;3.85;77.01
35848;BME280;22332;51.954;20.118;2023-03-13T05:48:10;99376.46;;;3.99;77.17
35848;BME280;22332;51.954;20.118;2023-03-13T05:51:39;99376.17;;;4.13;77.12
35848;BME280;22332;51.954;20.118;2023-03-13T05:55:04;99375.67;;;4.22;77.20
35848;BME280;22332;51.954;20.118;2023-03-13T05:58:23;99376.23;;;4.30;77.37
35848;BME280;22332;51.954;20.118;2023-03-13T06:01:43;99373.59;;;4.37;77.56
35848;BME280;22332;51.954;20.118;2023-03-13T06:04:54;99373.17;;;4.39;77.56
35848;BME280;22332;51.954;20.118;2023-03-13T06:08:00;99368.98;;;4.43;77.70
35848;BME280;22332;51.954;20.118;2023-03-13T06:11:06;99373.86;;;4.49;77.78
35848;BME280;22332;51.954;20.118;2023-03-13T06:14:13;99365.05;;;4.57;77.90
35848;BME280;22332;51.954;20.118;2023-03-13T06:17:24;99368.64;;;4.70;77.90
35848;BME280;22332;51.954;20.118;2023-03-13T06:20:30;99364.18;;;4.79;78.09
35848;BME280;22332;51.954;20.118;2023-03-13T06:23:36;99361.73;;;4.85;78.12
35848;BME280;22332;51.954;20.118;2023-03-13T06:26:42;99356.73;;;4.89;78.09
35848;BME280;22332;51.954;20.118;2023-03-13T06:29:48;99353.11;;;4.92;78.08
35848;BME280;22332;51.954;20.118;2023-03-13T06:32:53;99348.73;;;4.96;78.19
35848;BME280;22332;51.954;20.118;2023-03-13T06:36:00;99349.07;;;5.04;78.44
35848;BME280;22332;51.954;20.118;2023-03-13T06:39:06;99351.51;;;5.18;78.48
35848;BME280;22332;51.954;20.118;2023-03-13T06:42:12;99354.27;;;5.34;78.33
35848;BME280;22332;51.954;20.118;2023-03-13T06:45:18;99353.36;;;5.47;78.40
35848;BME280;22332;51.954;20.118;2023-03-13T06:48:23;99352.14;;;5.59;78.37
35848;BME280;22332;51.954;20.118;2023-03-13T06:51:29;99355.14;;;5.70;78.43
35848;BME280;22332;51.954;20.118;2023-03-13T06:54:35;99354.58;;;5.80;78.22
35848;BME280;22332;51.954;20.118;2023-03-13T06:57:41;99353.84;;;5.84;78.17
35848;BME280;22332;51.954;20.118;2023-03-13T07:00:46;99350.41;;;5.90;78.58
35848;BME280;22332;51.954;20.118;2023-03-13T07:03:52;99342.98;;;6.00;78.43
35848;BME280;22332;51.954;20.118;2023-03-13T07:06:57;99336.52;;;6.14;78.36
35848;BME280;22332;51.954;20.118;2023-03-13T07:10:04;99330.53;;;6.27;78.32
35848;BME280;22332;51.954;20.118;2023-03-13T07:13:09;99330.35;;;6.38;78.46
35848;BME280;22332;51.954;20.118;2023-03-13T07:16:15;99322.81;;;6.48;78.66
35848;BME280;22332;51.954;20.118;2023-03-13T07:19:21;99323.95;;;6.57;78.66
35848;BME280;22332;51.954;20.118;2023-03-13T07:22:27;99326.02;;;6.59;78.73
35848;BME280;22332;51.954;20.118;2023-03-13T07:25:32;99325.52;;;6.62;78.77
35848;BME280;22332;51.954;20.118;2023-03-13T07:28:38;99316.94;;;6.67;78.77
35848;BME280;22332;51.954;20.118;2023-03-13T07:31:44;99312.48;;;6.75;78.68
35848;BME280;22332;51.954;20.118;2023-03-13T07:34:49;99309.14;;;6.88;78.76
35848;BME280;22332;51.954;20.118;2023-03-13T07:37:55;99310.33;;;7.07;78.70
35848;BME280;22332;51.954;20.118;2023-03-13T07:41:00;99305.23;;;7.21;78.64
35848;BME280;22332;51.954;20.118;2023-03-13T07:44:06;99298.55;;;7.33;78.55
35848;BME280;22332;51.954;20.118;2023-03-13T07:47:12;99300.36;;;7.42;78.89
35848;BME280;22332;51.954;20.118;2023-03-13T07:50:17;99301.34;;;7.56;78.71
35848;BME280;22332;51.954;20.118;2023-03-13T07:53:23;99296.10;;;7.67;78.72
35848;BME280;22332;51.954;20.118;2023-03-13T07:56:29;99296.80;;;7.82;78.72
35848;BME280;22332;51.954;20.118;2023-03-13T07:59:35;99296.60;;;7.97;78.55
35848;BME280;22332;51.954;20.118;2023-03-13T08:02:40;99295.14;;;8.09;78.34
35848;BME280;22332;51.954;20.118;2023-03-13T08:05:46;99295.56;;;8.20;78.47
35848;BME280;22332;51.954;20.118;2023-03-13T08:08:55;99303.30;;;8.34;78.43
35848;BME280;22332;51.954;20.118;2023-03-13T08:12:01;99294.66;;;8.42;78.14
35848;BME280;22332;51.954;20.118;2023-03-13T08:15:09;99292.16;;;8.43;78.14
35848;BME280;22332;51.954;20.118;2023-03-13T08:18:14;99280.70;;;8.44;78.06
35848;BME280;22332;51.954;20.118;2023-03-13T08:21:24;99283.55;;;8.47;78.09
35848;BME280;22332;51.954;20.118;2023-03-13T08:24:30;99279.05;;;8.53;78.14
35848;BME280;22332;51.954;20.118;2023-03-13T08:27:36;99274.83;;;8.55;78.26
35848;BME280;22332;51.954;20.118;2023-03-13T08:30:42;99277.83;;;8.60;78.25
35848;BME280;22332;51.954;20.118;2023-03-13T08:33:48;99276.31;;;8.68;78.34
35848;BME280;22332;51.954;20.118;2023-03-13T08:36:53;99273.58;;;8.77;77.97
35848;BME280;22332;51.954;20.118;2023-03-13T08:40:00;99273.71;;;8.88;78.16
35848;BME280;22332;51.954;20.118;2023-03-13T08:43:06;99263.96;;;8.97;78.12
35848;BME280;22332;51.954;20.118;2023-03-13T08:46:11;99254.77;;;9.09;77.95
35848;BME280;22332;51.954;20.118;2023-03-13T08:49:17;99252.73;;;9.24;77.82
35848;BME280;22332;51.954;20.118;2023-03-13T08:52:23;99246.86;;;9.35;77.63
35848;BME280;22332;51.954;20.118;2023-03-13T08:55:29;99247.64;;;9.44;77.78
35848;BME280;22332;51.954;20.118;2023-03-13T08:58:35;99238.10;;;9.56;77.59
35848;BME280;22332;51.954;20.118;2023-03-13T09:01:41;99235.02;;;9.65;77.80
35848;BME280;22332;51.954;20.118;2023-03-13T09:04:47;99235.63;;;9.76;77.48
35848;BME280;22332;51.954;20.118;2023-03-13T09:07:54;99229.18;;;9.84;77.55
35848;BME280;22332;51.954;20.118;2023-03-13T09:11:01;99225.35;;;9.91;77.36
35848;BME280;22332;51.954;20.118;2023-03-13T09:14:08;99220.21;;;9.99;77.51
35848;BME280;22332;51.954;20.118;2023-03-13T09:17:14;99211.89;;;10.06;76.65
35848;BME280;22332;51.954;20.118;2023-03-13T09:20:20;99205.55;;;10.06;76.92
35848;BME280;22332;51.954;20.118;2023-03-13T09:23:26;99201.52;;;10.12;76.85
35848;BME280;22332;51.954;20.118;2023-03-13T09:26:32;99192.10;;;10.16;76.95
35848;BME280;22332;51.954;20.118;2023-03-13T09:29:38;99188.49;;;10.21;76.75
35848;BME280;22332;51.954;20.118;2023-03-13T09:32:45;99189.73;;;10.21;76.48
35848;BME280;22332;51.954;20.118;2023-03-13T09:35:51;99190.88;;;10.19;76.45
35848;BME280;22332;51.954;20.118;2023-03-13T09:38:58;99197.23;;;10.15;76.39
35848;BME280;22332;51.954;20.118;2023-03-13T09:42:11;99196.48;;;10.12;76.15
35848;BME280;22332;51.954;20.118;2023-03-13T09:45:24;99193.06;;;10.11;76.24
35848;BME280;22332;51.954;20.118;2023-03-13T09:48:38;99182.98;;;10.12;76.31
35848;BME280;22332;51.954;20.118;2023-03-13T09:51:49;99181.90;;;10.20;76.38
35848;BME280;22332;51.954;20.118;2023-03-13T09:55:00;99175.82;;;10.36;75.67
35848;BME280;22332;51.954;20.118;2023-03-13T09:58:12;99175.23;;;10.53;75.94
35848;BME280;22332;51.954;20.118;2023-03-13T10:01:19;99170.95;;;10.73;75.58
35848;BME280;22332;51.954;20.118;2023-03-13T10:04:33;99160.84;;;10.80;75.45
35848;BME280;22332;51.954;20.118;2023-03-13T10:07:40;99151.96;;;10.85;75.19
35848;BME280;22332;51.954;20.118;2023-03-13T10:10:50;99154.85;;;10.90;75.53
35848;BME280;22332;51.954;20.118;2023-03-13T10:13:58;99141.96;;;11.00;75.10
35848;BME280;22332;51.954;20.118;2023-03-13T10:17:12;99138.96;;;11.09;74.89
35848;BME280;22332;51.954;20.118;2023-03-13T10:20:24;99137.92;;;11.19;74.52
35848;BME280;22332;51.954;20.118;2023-03-13T10:23:37;99138.36;;;11.31;74.38
35848;BME280;22332;51.954;20.118;2023-03-13T10:26:43;99141.80;;;11.43;74.25
35848;BME280;22332;51.954;20.118;2023-03-13T10:29:49;99139.70;;;11.51;73.97
35848;BME280;22332;51.954;20.118;2023-03-13T10:32:59;99131.02;;;11.58;73.47
35848;BME280;22332;51.954;20.118;2023-03-13T10:36:10;99120.86;;;11.67;73.74
35848;BME280;22332;51.954;20.118;2023-03-13T10:39:18;99114.92;;;11.81;73.32
35848;BME280;22332;51.954;20.118;2023-03-13T10:42:29;99099.74;;;11.90;73.07
35848;BME280;22332;51.954;20.118;2023-03-13T10:45:37;99093.80;;;12.01;72.71
35848;BME280;22332;51.954;20.118;2023-03-13T10:48:43;99084.33;;;12.11;72.63
35848;BME280;22332;51.954;20.118;2023-03-13T10:51:50;99084.84;;;12.18;72.08
35848;BME280;22332;51.954;20.118;2023-03-13T10:55:00;99077.23;;;12.22;72.64
35848;BME280;22332;51.954;20.118;2023-03-13T10:58:17;99075.98;;;12.28;71.89
35848;BME280;22332;51.954;20.118;2023-03-13T11:01:24;99070.64;;;12.32;72.19
35848;BME280;22332;51.954;20.118;2023-03-13T11:04:34;99068.27;;;12.39;72.26
35848;BME280;22332;51.954;20.118;2023-03-13T11:07:40;99061.77;;;12.46;72.18
35848;BME280;22332;51.954;20.118;2023-03-13T11:10:57;99056.28;;;12.50;71.56
35848;BME280;22332;51.954;20.118;2023-03-13T11:14:12;99046.70;;;12.50;71.33
35848;BME280;22332;51.954;20.118;2023-03-13T11:17:25;99038.63;;;12.46;71.07
35848;BME280;22332;51.954;20.118;2023-03-13T11:20:36;99035.02;;;12.36;70.46
35848;BME280;22332;51.954;20.118;2023-03-13T11:23:46;99019.64;;;12.25;70.61
35848;BME280;22332;51.954;20.118;2023-03-13T11:26:58;99015.27;;;12.20;70.89
35848;BME280;22332;51.954;20.118;2023-03-13T11:30:18;99008.84;;;12.17;70.98
35848;BME280;22332;51.954;20.118;2023-03-13T11:33:37;99002.91;;;12.12;70.21
35848;BME280;22332;51.954;20.118;2023-03-13T11:36:50;98998.77;;;12.07;70.63
35848;BME280;22332;51.954;20.118;2023-03-13T11:40:04;98990.02;;;12.04;70.15
35848;BME280;22332;51.954;20.118;2023-03-13T11:43:37;98987.63;;;12.03;70.74
35848;BME280;22332;51.954;20.118;2023-03-13T11:46:58;98980.02;;;12.07;70.34
35848;BME280;22332;51.954;20.118;2023-03-13T11:50:28;98969.11;;;12.06;70.13
35848;BME280;22332;51.954;20.118;2023-03-13T11:53:47;98967.15;;;12.04;70.07
35848;BME280;22332;51.954;20.118;2023-03-13T11:56:58;98967.78;;;12.05;70.31
35848;BME280;22332;51.954;20.118;2023-03-13T12:00:21;98969.34;;;12.04;70.50
35848;BME280;22332;51.954;20.118;2023-03-13T12:03:37;98963.42;;;12.00;70.36
35848;BME280;22332;51.954;20.118;2023-03-13T12:06:48;98961.08;;;11.94;69.99
35848;BME280;22332;51.954;20.118;2023-03-13T12:09:58;98968.11;;;11.90;70.75
35848;BME280;22332;51.954;20.118;2023-03-13T12:13:09;98966.97;;;11.92;71.18
35848;BME280;22332;51.954;20.118;2023-03-13T12:16:23;98967.33;;;11.90;71.41
35848;BME280;22332;51.954;20.118;2023-03-13T12:19:35;98960.02;;;11.85;71.65
35848;BME280;22332;51.954;20.118;2023-03-13T12:22:47;98960.64;;;11.75;71.82
35848;BME280;22332;51.954;20.118;2023-03-13T12:25:59;98949.42;;;11.66;71.96
35848;BME280;22332;51.954;20.118;2023-03-13T12:29:14;98944.99;;;11.63;72.56
35848;BME280;22332;51.954;20.118;2023-03-13T12:32:26;98939.08;;;11.64;72.76
35848;BME280;22332;51.954;20.118;2023-03-13T12:35:35;98941.46;;;11.63;72.86
35848;BME280;22332;51.954;20.118;2023-03-13T12:38:48;98932.77;;;11.57;73.14
35848;BME280;22332;51.954;20.118;2023-03-13T12:42:07;98929.48;;;11.46;73.36
35848;BME280;22332;51.954;20.118;2023-03-13T12:45:18;98923.42;;;11.36;73.40
35848;BME280;22332;51.954;20.118;2023-03-13T12:52:06;98910.93;;;11.28;74.20
35848;BME280;22332;51.954;20.118;2023-03-13T12:55:28;98909.16;;;11.22;73.93
35848;BME280;22332;51.954;20.118;2023-03-13T12:58:44;98908.36;;;11.16;74.19
35848;BME280;22332;51.954;20.118;2023-03-13T13:01:54;98906.35;;;11.13;74.51
35848;BME280;22332;51.954;20.118;2023-03-13T13:05:02;98904.71;;;11.14;75.05
35848;BME280;22332;51.954;20.118;2023-03-13T13:08:24;98900.63;;;11.15;75.34
35848;BME280;22332;51.954;20.118;2023-03-13T13:11:53;98899.23;;;11.13;75.47
35848;BME280;22332;51.954;20.118;2023-03-13T13:15:16;98886.12;;;11.07;75.57
35848;BME280;22332;51.954;20.118;2023-03-13T13:18:26;98876.08;;;11.00;75.92
35848;BME280;22332;51.954;20.118;2023-03-13T13:21:32;98864.92;;;10.93;75.96
35848;BME280;22332;51.954;20.118;2023-03-13T13:24:49;98868.10;;;10.87;76.03
35848;BME280;22332;51.954;20.118;2023-03-13T13:27:55;98864.33;;;10.83;76.45
35848;BME280;22332;51.954;20.118;2023-03-13T13:31:01;98864.63;;;10.85;76.21
35848;BME280;22332;51.954;20.118;2023-03-13T13:34:58;98856.04;;;10.88;76.74
35848;BME280;22332;51.954;20.118;2023-03-13T13:38:28;98856.05;;;10.90;76.58
35848;BME280;22332;51.954;20.118;2023-03-13T13:41:40;98853.13;;;10.89;76.68
35848;BME280;22332;51.954;20.118;2023-03-13T13:44:58;98850.58;;;10.84;76.87
35848;BME280;22332;51.954;20.118;2023-03-13T13:48:31;98848.35;;;10.79;76.81
35848;BME280;22332;51.954;20.118;2023-03-13T13:51:39;98841.37;;;10.79;76.84
35848;BME280;22332;51.954;20.118;2023-03-13T13:54:56;98838.70;;;10.82;76.82
35848;BME280;22332;51.954;20.118;2023-03-13T13:58:04;98836.98;;;10.87;76.57
35848;BME280;22332;51.954;20.118;2023-03-13T14:01:16;98837.82;;;10.89;76.43
35848;BME280;22332;51.954;20.118;2023-03-13T14:04:26;98830.57;;;10.90;76.32
35848;BME280;22332;51.954;20.118;2023-03-13T14:07:47;98826.82;;;10.89;76.20
35848;BME280;22332;51.954;20.118;2023-03-13T14:11:02;98817.77;;;10.83;76.08
35848;BME280;22332;51.954;20.118;2023-03-13T14:14:15;98814.32;;;10.78;76.11
35848;BME280;22332;51.954;20.118;2023-03-13T14:17:21;98811.09;;;10.72;75.97
35848;BME280;22332;51.954;20.118;2023-03-13T14:20:30;98807.77;;;10.66;76.30
35848;BME280;22332;51.954;20.118;2023-03-13T14:23:39;98809.85;;;10.63;76.40
35848;BME280;22332;51.954;20.118;2023-03-13T14:26:46;98806.91;;;10.64;76.45
35848;BME280;22332;51.954;20.118;2023-03-13T14:30:06;98800.20;;;10.64;76.51
35848;BME280;22332;51.954;20.118;2023-03-13T14:33:13;98805.98;;;10.65;76.42
35848;BME280;22332;51.954;20.118;2023-03-13T14:36:19;98802.42;;;10.63;76.49
35848;BME280;22332;51.954;20.118;2023-03-13T14:39:42;98801.29;;;10.60;76.48
35848;BME280;22332;51.954;20.118;2023-03-13T14:42:51;98793.06;;;10.55;76.30
35848;BME280;22332;51.954;20.118;2023-03-13T14:45:57;98785.27;;;10.50;76.47
35848;BME280;22332;51.954;20.118;2023-03-13T14:49:13;98780.11;;;10.45;76.50
35848;BME280;22332;51.954;20.118;2023-03-13T14:52:22;98772.64;;;10.40;76.26
35848;BME280;22332;51.954;20.118;2023-03-13T14:55:31;98765.04;;;10.40;76.44
35848;BME280;22332;51.954;20.118;2023-03-13T14:58:38;98764.79;;;10.42;76.54
35848;BME280;22332;51.954;20.118;2023-03-13T15:01:44;98762.71;;;10.43;76.64
35848;BME280;22332;51.954;20.118;2023-03-13T15:04:56;98763.48;;;10.43;76.72
35848;BME280;22332;51.954;20.118;2023-03-13T15:08:03;98769.77;;;10.41;76.42
35848;BME280;22332;51.954;20.118;2023-03-13T15:11:21;98767.85;;;10.37;76.93
35848;BME280;22332;51.954;20.118;2023-03-13T15:14:40;98774.84;;;10.33;77.28
35848;BME280;22332;51.954;20.118;2023-03-13T15:17:46;98773.20;;;10.28;77.46
35848;BME280;22332;51.954;20.118;2023-03-13T15:20:53;98775.02;;;10.28;77.60
35848;BME280;22332;51.954;20.118;2023-03-13T15:24:06;98774.04;;;10.29;77.66
35848;BME280;22332;51.954;20.118;2023-03-13T15:27:17;98769.00;;;10.31;77.47
35848;BME280;22332;51.954;20.118;2023-03-13T15:30:24;98762.13;;;10.32;77.57
35848;BME280;22332;51.954;20.118;2023-03-13T15:33:30;98757.84;;;10.34;77.16
35848;BME280;22332;51.954;20.118;2023-03-13T15:36:36;98758.36;;;10.32;77.01
35848;BME280;22332;51.954;20.118;2023-03-13T15:39:44;98748.79;;;10.29;76.92
35848;BME280;22332;51.954;20.118;2023-03-13T15:42:50;98747.30;;;10.25;76.95
35848;BME280;22332;51.954;20.118;2023-03-13T15:45:56;98743.16;;;10.21;77.14
35848;BME280;22332;51.954;20.118;2023-03-13T15:49:01;98738.80;;;10.20;77.18
35848;BME280;22332;51.954;20.118;2023-03-13T15:52:14;98753.45;;;10.22;77.27
35848;BME280;22332;51.954;20.118;2023-03-13T15:55:27;98749.81;;;10.27;76.87
35848;BME280;22332;51.954;20.118;2023-03-13T15:58:33;98754.48;;;10.29;76.88
35848;BME280;22332;51.954;20.118;2023-03-13T16:01:39;98753.05;;;10.29;76.61
35848;BME280;22332;51.954;20.118;2023-03-13T16:04:45;98750.13;;;10.28;76.89
35848;BME280;22332;51.954;20.118;2023-03-13T16:07:50;98749.88;;;10.26;76.48
35848;BME280;22332;51.954;20.118;2023-03-13T16:10:56;98751.91;;;10.24;76.77
35848;BME280;22332;51.954;20.118;2023-03-13T16:14:02;98752.06;;;10.19;76.82
35848;BME280;22332;51.954;20.118;2023-03-13T16:17:13;98758.16;;;10.17;76.93
35848;BME280;22332;51.954;20.118;2023-03-13T16:20:21;98750.66;;;10.18;76.95
35848;BME280;22332;51.954;20.118;2023-03-13T16:23:28;98740.04;;;10.22;77.08
35848;BME280;22332;51.954;20.118;2023-03-13T16:26:33;98732.94;;;10.25;76.60
35848;BME280;22332;51.954;20.118;2023-03-13T16:29:39;98746.77;;;10.27;76.62
35848;BME280;22332;51.954;20.118;2023-03-13T16:32:45;98752.67;;;10.26;76.66
35848;BME280;22332;51.954;20.118;2023-03-13T16:35:52;98750.64;;;10.24;76.53
35848;BME280;22332;51.954;20.118;2023-03-13T16:38:58;98757.98;;;10.20;76.60
35848;BME280;22332;51.954;20.118;2023-03-13T16:42:05;98758.36;;;10.17;76.34
35848;BME280;22332;51.954;20.118;2023-03-13T16:45:11;98760.63;;;10.15;76.51